Аэропорт: Оренбург-Центральный. Оренбург

ICAO: UWOO

METAR:
2019-07-24 01:00:00
UWOO 240100Z 01004MPS CAVOK 16/11 Q1014 R08/65D NOSIG RMK QFE750/1000
METAR:
2019-07-23 22:47:00
TAF UWOO 232247Z 2400/2424 35005G13MPS 9999 BKN020 TX28/2411Z TN12/2401Z BECMG 2404/2406 02006G13MPS